createdAt,value
2018-03-02T00:01:25.877Z,-6.54
2018-03-02T00:03:51.629Z,-6.52
2018-03-02T00:06:17.376Z,-6.61
2018-03-02T00:08:43.134Z,-6.62
2018-03-02T00:11:08.886Z,-6.58
2018-03-02T00:13:34.644Z,-6.63
2018-03-02T00:16:00.397Z,-6.64
2018-03-02T00:18:26.166Z,-6.64
2018-03-02T00:20:51.906Z,-6.63
2018-03-02T00:23:17.669Z,-6.68
2018-03-02T00:25:43.402Z,-6.75
2018-03-02T00:28:09.188Z,-6.72
2018-03-02T00:30:34.946Z,-6.68
2018-03-02T00:33:00.690Z,-6.68
2018-03-02T00:35:26.442Z,-6.64
2018-03-02T00:37:52.190Z,-6.65
2018-03-02T00:40:17.933Z,-6.69
2018-03-02T00:42:43.689Z,-6.66
2018-03-02T00:45:09.449Z,-6.67
2018-03-02T00:47:35.195Z,-6.71
2018-03-02T00:50:00.952Z,-6.71
2018-03-02T00:52:26.694Z,-6.75
2018-03-02T00:54:52.455Z,-6.79
2018-03-02T00:57:18.177Z,-6.74
2018-03-02T00:59:43.951Z,-6.81
2018-03-02T01:02:09.740Z,-6.84
2018-03-02T01:04:35.490Z,-6.88
2018-03-02T01:07:01.244Z,-6.88
2018-03-02T01:09:27.002Z,-6.94
2018-03-02T01:11:52.758Z,-6.96
2018-03-02T01:14:18.531Z,-7.00
2018-03-02T01:16:44.286Z,-7.07
2018-03-02T01:19:10.017Z,-7.08
2018-03-02T01:21:35.775Z,-7.19
2018-03-02T01:24:01.514Z,-7.22
2018-03-02T01:26:27.274Z,-7.08
2018-03-02T01:28:53.046Z,-7.24
2018-03-02T01:31:18.794Z,-7.23
2018-03-02T01:33:44.534Z,-7.32
2018-03-02T01:36:10.298Z,-7.42
2018-03-02T01:38:36.043Z,-7.47
2018-03-02T01:41:01.792Z,-7.45
2018-03-02T01:43:27.542Z,-7.57
2018-03-02T01:45:53.280Z,-7.47
2018-03-02T01:48:19.017Z,-7.52
2018-03-02T01:50:44.771Z,-7.49
2018-03-02T01:53:10.554Z,-7.57
2018-03-02T01:55:36.302Z,-7.63
2018-03-02T01:58:02.042Z,-7.63
2018-03-02T02:00:27.794Z,-7.65
2018-03-02T02:02:53.526Z,-7.60
2018-03-02T02:05:19.287Z,-7.64
2018-03-02T02:07:45.037Z,-7.62
2018-03-02T02:10:10.783Z,-7.79
2018-03-02T02:12:36.543Z,-7.68
2018-03-02T02:15:02.495Z,-7.76
2018-03-02T02:17:28.269Z,-7.86
2018-03-02T02:19:54.010Z,-7.80
2018-03-02T02:22:19.782Z,-7.84
2018-03-02T02:24:45.510Z,-7.90
2018-03-02T02:27:11.272Z,-7.97
2018-03-02T02:29:37.049Z,-7.96
2018-03-02T02:32:02.816Z,-7.85
2018-03-02T02:34:28.576Z,-8.06
2018-03-02T02:36:54.320Z,-8.08
2018-03-02T02:39:20.070Z,-8.04
2018-03-02T02:41:45.860Z,-8.14
2018-03-02T02:44:11.590Z,-8.15
2018-03-02T02:46:37.334Z,-8.10
2018-03-02T02:49:03.077Z,-8.14
2018-03-02T02:51:28.849Z,-8.20
2018-03-02T02:53:54.595Z,-8.20
2018-03-02T02:56:20.338Z,-8.21
2018-03-02T02:58:46.138Z,-8.40
2018-03-02T03:01:11.882Z,-8.39
2018-03-02T03:03:37.630Z,-8.38
2018-03-02T03:06:03.377Z,-8.38
2018-03-02T03:08:29.152Z,-8.31
2018-03-02T03:10:54.905Z,-8.38
2018-03-02T03:13:20.643Z,-8.45
2018-03-02T03:15:46.389Z,-8.48
2018-03-02T03:18:12.152Z,-8.37
2018-03-02T03:20:37.894Z,-8.40
2018-03-02T03:23:03.671Z,-8.36
2018-03-02T03:25:29.416Z,-8.33
2018-03-02T03:27:55.158Z,-8.47
2018-03-02T03:30:20.934Z,-8.45
2018-03-02T03:32:46.693Z,-8.42
2018-03-02T03:35:12.451Z,-8.44
2018-03-02T03:37:38.208Z,-8.35
2018-03-02T03:40:04.050Z,-8.50
2018-03-02T03:42:29.833Z,-8.51
2018-03-02T03:45:02.550Z,-8.41
2018-03-02T03:47:28.333Z,-8.52
2018-03-02T03:49:54.078Z,-8.56
2018-03-02T03:52:19.821Z,-8.40
2018-03-02T03:54:45.654Z,-8.48
2018-03-02T03:57:11.382Z,-8.52
2018-03-02T03:59:37.167Z,-8.46
2018-03-02T04:04:35.474Z,-8.52
2018-03-02T04:07:01.230Z,-8.36
2018-03-02T04:09:27.026Z,-8.33
2018-03-02T04:11:52.771Z,-8.41
2018-03-02T04:14:18.531Z,-8.39
2018-03-02T04:16:44.306Z,-8.33
2018-03-02T04:19:10.087Z,-8.42
2018-03-02T04:21:35.859Z,-8.42
2018-03-02T04:24:01.607Z,-8.32
2018-03-02T04:26:27.365Z,-8.32
2018-03-02T04:28:53.110Z,-8.36
2018-03-02T04:31:18.906Z,-8.41
2018-03-02T04:33:44.682Z,-8.41
2018-03-02T04:36:10.440Z,-8.36
2018-03-02T04:38:36.205Z,-8.38
2018-03-02T04:41:01.967Z,-8.41
2018-03-02T04:43:27.717Z,-8.35
2018-03-02T04:45:53.492Z,-8.38
2018-03-02T04:48:19.270Z,-8.31
2018-03-02T04:50:45.034Z,-8.27
2018-03-02T04:53:10.801Z,-8.40
2018-03-02T04:55:36.565Z,-8.37
2018-03-02T04:58:02.318Z,-8.40
2018-03-02T05:00:28.067Z,-8.55
2018-03-02T05:02:53.816Z,-8.68
2018-03-02T05:05:19.566Z,-8.68
2018-03-02T05:07:45.349Z,-8.71
2018-03-02T05:10:11.128Z,-8.66
2018-03-02T05:12:36.922Z,-8.64
2018-03-02T05:15:02.695Z,-8.63
2018-03-02T05:17:28.454Z,-8.52
2018-03-02T05:19:54.195Z,-8.64
2018-03-02T05:22:19.929Z,-8.63
2018-03-02T05:24:45.666Z,-8.68
2018-03-02T05:27:11.405Z,-8.74
2018-03-02T05:29:37.154Z,-8.78
2018-03-02T05:32:02.901Z,-8.84
2018-03-02T05:34:28.650Z,-8.77
2018-03-02T05:36:54.398Z,-8.83
2018-03-02T05:39:20.150Z,-8.77
2018-03-02T05:41:45.881Z,-8.80
2018-03-02T05:44:11.605Z,-8.78
2018-03-02T05:46:37.367Z,-8.70
2018-03-02T05:49:03.128Z,-8.68
2018-03-02T05:51:28.875Z,-8.67
2018-03-02T05:53:54.613Z,-8.63
2018-03-02T05:56:20.355Z,-8.54
2018-03-02T05:58:46.078Z,-8.56
2018-03-02T06:01:11.843Z,-8.55
2018-03-02T06:03:37.583Z,-8.56
2018-03-02T06:06:03.330Z,-8.54
2018-03-02T06:08:29.066Z,-8.48
2018-03-02T06:10:54.813Z,-8.47
2018-03-02T06:13:20.570Z,-8.51
2018-03-02T06:15:46.309Z,-8.38
2018-03-02T06:18:12.039Z,-8.37
2018-03-02T06:20:37.781Z,-8.38
2018-03-02T06:23:03.517Z,-8.32
2018-03-02T06:25:29.254Z,-8.24
2018-03-02T06:27:55.015Z,-8.24
2018-03-02T06:30:20.762Z,-8.41
2018-03-02T06:32:46.508Z,-8.65
2018-03-02T06:35:12.267Z,-8.78
2018-03-02T06:37:38.015Z,-8.85
2018-03-02T06:40:03.777Z,-8.69
2018-03-02T06:42:29.519Z,-8.99
2018-03-02T06:44:55.237Z,-8.87
2018-03-02T06:47:21.018Z,-8.81
2018-03-02T06:49:46.766Z,-8.73
2018-03-02T06:52:12.515Z,-8.64
2018-03-02T06:54:38.245Z,-8.61
2018-03-02T06:57:03.979Z,-8.65
2018-03-02T06:59:29.728Z,-8.87
2018-03-02T07:01:55.480Z,-8.87
2018-03-02T07:04:21.267Z,-8.82
2018-03-02T07:06:47.009Z,-8.86
2018-03-02T07:09:12.738Z,-8.68
2018-03-02T07:11:38.485Z,-8.51
2018-03-02T07:14:04.208Z,-8.54
2018-03-02T07:16:29.970Z,-8.60
2018-03-02T07:18:55.697Z,-8.52
2018-03-02T07:21:21.447Z,-8.32
2018-03-02T07:23:47.193Z,-8.15
2018-03-02T07:26:12.933Z,-8.27
2018-03-02T07:28:38.663Z,-8.32
2018-03-02T07:31:04.445Z,-8.19
2018-03-02T07:33:30.192Z,-8.22
2018-03-02T07:35:55.932Z,-8.06
2018-03-02T07:38:21.704Z,-7.91
2018-03-02T07:40:47.430Z,-7.92
2018-03-02T07:43:13.212Z,-8.00
2018-03-02T07:45:38.962Z,-7.82
2018-03-02T07:48:04.721Z,-7.66
2018-03-02T07:50:30.468Z,-7.55
2018-03-02T07:52:56.244Z,-7.28
2018-03-02T07:55:21.999Z,-7.24
2018-03-02T07:57:47.761Z,-7.23
2018-03-02T08:00:13.511Z,-7.15
2018-03-02T08:02:39.241Z,-7.12
2018-03-02T08:05:05.006Z,-6.96
2018-03-02T08:07:30.758Z,-6.79
2018-03-02T08:09:56.518Z,-6.76
2018-03-02T08:12:22.269Z,-6.48
2018-03-02T08:14:48.002Z,-6.72
2018-03-02T08:17:13.750Z,-6.69
2018-03-02T08:19:39.490Z,-6.54
2018-03-02T08:22:05.249Z,-6.59
2018-03-02T08:24:31.006Z,-6.39
2018-03-02T08:26:56.786Z,-6.36
2018-03-02T08:29:22.524Z,-6.31
2018-03-02T08:31:48.270Z,-6.21
2018-03-02T08:34:14.009Z,-6.05
2018-03-02T08:36:39.826Z,-5.99
2018-03-02T08:39:05.574Z,-6.12
2018-03-02T08:41:31.309Z,-6.36
2018-03-02T08:43:57.051Z,-6.16
2018-03-02T08:46:22.789Z,-5.98
2018-03-02T08:48:48.650Z,-6.03
2018-03-02T08:51:14.386Z,-6.13
2018-03-02T08:53:40.128Z,-6.09
2018-03-02T08:56:05.863Z,-6.13
2018-03-02T08:58:31.629Z,-6.13
2018-03-02T09:00:57.379Z,-6.01
2018-03-02T09:03:23.118Z,-5.98
2018-03-02T09:05:48.856Z,-5.92
2018-03-02T09:08:14.609Z,-5.76
2018-03-02T09:10:40.372Z,-5.87
2018-03-02T09:13:06.161Z,-5.82
2018-03-02T09:15:31.911Z,-5.94
2018-03-02T09:17:57.654Z,-5.92
2018-03-02T09:20:23.400Z,-5.74
2018-03-02T09:22:49.173Z,-5.84
2018-03-02T09:25:14.902Z,-5.72
2018-03-02T09:27:40.637Z,-5.57
2018-03-02T09:30:06.418Z,-5.78
2018-03-02T09:32:32.139Z,-5.70
2018-03-02T09:34:57.901Z,-5.48
2018-03-02T09:37:23.640Z,-5.59
2018-03-02T09:39:49.378Z,-5.60
2018-03-02T09:42:15.118Z,-5.38
2018-03-02T09:44:40.881Z,-5.43
2018-03-02T09:47:06.708Z,-5.45
2018-03-02T09:49:32.445Z,-5.48
2018-03-02T09:51:58.203Z,-5.50
2018-03-02T09:54:23.946Z,-5.28
2018-03-02T09:56:49.705Z,-5.30
2018-03-02T09:59:15.454Z,-5.11
2018-03-02T10:01:41.219Z,-5.23
2018-03-02T10:04:06.951Z,-5.44
2018-03-02T10:06:32.678Z,-5.14
2018-03-02T10:08:58.402Z,-4.66
2018-03-02T10:11:24.154Z,-4.60
2018-03-02T10:13:49.873Z,-4.51
2018-03-02T10:16:15.677Z,-4.41
2018-03-02T10:18:41.415Z,-4.56
2018-03-02T10:21:07.154Z,-4.53
2018-03-02T10:23:32.886Z,-4.74
2018-03-02T10:25:58.683Z,-4.82
2018-03-02T10:28:24.419Z,-4.83
2018-03-02T10:30:50.204Z,-4.80
2018-03-02T10:33:15.934Z,-4.84
2018-03-02T10:35:41.730Z,-4.75
2018-03-02T10:38:07.420Z,-4.78
2018-03-02T10:40:33.165Z,-4.60
2018-03-02T10:42:58.902Z,-4.70
2018-03-02T10:45:24.650Z,-4.79
2018-03-02T10:47:50.398Z,-4.70
2018-03-02T10:50:16.156Z,-4.60
2018-03-02T10:52:41.925Z,-4.47
2018-03-02T10:55:07.651Z,-4.34
2018-03-02T10:57:33.393Z,-4.41
2018-03-02T10:59:59.121Z,-4.60
2018-03-02T11:02:24.861Z,-4.38
2018-03-02T11:04:56.881Z,-4.19
2018-03-02T11:07:22.621Z,-4.05
2018-03-02T11:09:48.385Z,-4.10
2018-03-02T11:12:14.196Z,-3.74
2018-03-02T11:14:39.934Z,-3.98
2018-03-02T11:17:05.692Z,-4.39
2018-03-02T11:19:31.434Z,-4.26
2018-03-02T11:21:57.196Z,-4.16
2018-03-02T11:24:22.935Z,-3.87
2018-03-02T11:26:48.669Z,-3.68
2018-03-02T11:29:14.406Z,-4.11
2018-03-02T11:31:40.186Z,-4.09
2018-03-02T11:34:05.927Z,-3.95
2018-03-02T11:36:31.674Z,-3.29
2018-03-02T11:38:57.417Z,-3.16
2018-03-02T11:41:23.148Z,-3.35
2018-03-02T11:43:48.887Z,-3.19
2018-03-02T11:46:14.640Z,-3.19
2018-03-02T11:48:40.400Z,-3.37
2018-03-02T11:51:06.139Z,-3.25
2018-03-02T11:53:31.876Z,-3.37
2018-03-02T11:55:57.594Z,-3.14
2018-03-02T11:58:23.332Z,-3.30
2018-03-02T12:00:49.110Z,-3.00
2018-03-02T12:03:14.851Z,-2.54
2018-03-02T12:05:40.580Z,-3.01
2018-03-02T12:08:06.326Z,-2.83
2018-03-02T12:10:32.066Z,-2.79
2018-03-02T12:12:57.805Z,-2.77
2018-03-02T12:15:23.530Z,-2.71
2018-03-02T12:17:49.264Z,-2.80
2018-03-02T12:20:14.999Z,-2.82
2018-03-02T12:22:40.758Z,-2.73
2018-03-02T12:25:06.466Z,-2.63
2018-03-02T12:27:32.227Z,-2.68
2018-03-02T12:29:57.957Z,-2.93
2018-03-02T12:32:23.680Z,-2.79
2018-03-02T12:34:49.413Z,-2.44
2018-03-02T12:37:15.142Z,-2.60
2018-03-02T12:39:40.909Z,-3.12
2018-03-02T12:42:06.642Z,-3.04
2018-03-02T12:44:32.416Z,-3.24
2018-03-02T12:46:58.104Z,-3.17
2018-03-02T12:49:23.829Z,-3.11
2018-03-02T12:51:49.553Z,-2.92
2018-03-02T12:54:15.289Z,-3.02
2018-03-02T12:56:41.029Z,-2.86
2018-03-02T12:59:06.765Z,-2.60
2018-03-02T13:01:32.486Z,-2.73
2018-03-02T13:03:58.220Z,-2.77
2018-03-02T13:06:23.942Z,-3.03
2018-03-02T13:08:49.713Z,-2.93
2018-03-02T13:11:15.451Z,-2.97
2018-03-02T13:13:41.197Z,-3.10
2018-03-02T13:16:06.981Z,-2.77
2018-03-02T13:18:42.042Z,-2.89
2018-03-02T13:21:07.778Z,-2.89
2018-03-02T13:23:33.518Z,-2.74
2018-03-02T13:25:59.266Z,-2.84
2018-03-02T13:28:37.398Z,-2.81
2018-03-02T13:31:03.138Z,-2.82
2018-03-02T13:33:41.386Z,-2.41
2018-03-02T13:36:09.234Z,-2.41
2018-03-02T13:38:34.935Z,-2.94
2018-03-02T13:41:13.001Z,-2.45
2018-03-02T13:43:38.726Z,-2.51
2018-03-02T13:46:04.467Z,-2.51
2018-03-02T13:48:42.653Z,-2.64
2018-03-02T13:51:08.393Z,-2.53
2018-03-02T13:53:34.128Z,-2.63
2018-03-02T13:55:59.866Z,-2.81
2018-03-02T13:58:25.594Z,-3.29
2018-03-02T14:00:51.329Z,-3.14
2018-03-02T14:03:29.571Z,-3.27
2018-03-02T14:05:55.315Z,-3.52
2018-03-02T14:08:21.044Z,-3.56
2018-03-02T14:10:47.577Z,-3.44
2018-03-02T14:13:13.306Z,-3.18
2018-03-02T14:15:39.026Z,-3.29
2018-03-02T14:18:04.755Z,-3.41
2018-03-02T14:20:30.486Z,-3.30
2018-03-02T14:22:56.218Z,-3.38
2018-03-02T14:25:22.006Z,-3.41
2018-03-02T14:27:47.734Z,-3.48
2018-03-02T14:30:13.465Z,-3.45
2018-03-02T14:32:39.239Z,-3.56
2018-03-02T14:35:04.965Z,-3.51
2018-03-02T14:37:30.714Z,-3.70
2018-03-02T14:39:56.450Z,-3.70
2018-03-02T14:42:22.207Z,-3.77
2018-03-02T14:44:47.950Z,-3.61
2018-03-02T14:47:13.687Z,-3.78
2018-03-02T14:49:39.414Z,-3.57
2018-03-02T14:52:05.159Z,-3.66
2018-03-02T14:54:30.894Z,-3.60
2018-03-02T14:56:56.652Z,-3.78
2018-03-02T14:59:22.373Z,-3.71
2018-03-02T15:01:48.085Z,-3.84
2018-03-02T15:04:13.821Z,-3.78
2018-03-02T15:06:39.562Z,-3.74
2018-03-02T15:09:05.313Z,-3.88
2018-03-02T15:11:31.041Z,-3.89
2018-03-02T15:13:56.794Z,-3.83
2018-03-02T15:16:22.518Z,-3.88
2018-03-02T15:18:48.250Z,-3.91
2018-03-02T15:21:14.029Z,-3.93
2018-03-02T15:23:39.763Z,-3.99
2018-03-02T15:26:05.494Z,-3.86
2018-03-02T15:28:31.238Z,-4.00
2018-03-02T15:30:56.987Z,-3.67
2018-03-02T15:33:22.734Z,-3.79
2018-03-02T15:35:48.481Z,-3.84
2018-03-02T15:38:14.234Z,-3.76
2018-03-02T15:40:39.981Z,-3.68
2018-03-02T15:43:05.734Z,-3.70
2018-03-02T15:45:31.474Z,-3.86
2018-03-02T15:47:57.241Z,-3.85
2018-03-02T15:50:22.970Z,-3.80
2018-03-02T15:52:48.718Z,-3.97
2018-03-02T15:55:14.476Z,-3.84
2018-03-02T15:57:40.215Z,-3.98
2018-03-02T16:00:05.970Z,-3.91
2018-03-02T16:02:31.707Z,-3.99
2018-03-02T16:04:57.468Z,-3.95
2018-03-02T16:07:23.210Z,-4.02
2018-03-02T16:09:48.958Z,-4.10
2018-03-02T16:12:14.698Z,-4.07
2018-03-02T16:14:40.503Z,-4.06
2018-03-02T16:17:06.285Z,-4.05
2018-03-02T16:19:32.034Z,-3.99
2018-03-02T16:21:57.776Z,-4.12
2018-03-02T16:24:23.515Z,-4.07
2018-03-02T16:26:49.265Z,-4.14
2018-03-02T16:29:15.010Z,-4.17
2018-03-02T16:31:40.753Z,-4.24
2018-03-02T16:34:06.490Z,-4.23
2018-03-02T16:36:32.289Z,-4.24
2018-03-02T16:38:58.078Z,-4.17
2018-03-02T16:41:23.822Z,-4.32
2018-03-02T16:43:49.557Z,-4.28
2018-03-02T16:46:15.324Z,-4.31
2018-03-02T16:48:41.067Z,-4.30
2018-03-02T16:51:06.809Z,-4.41
2018-03-02T16:53:32.594Z,-4.41
2018-03-02T16:55:58.325Z,-4.49
2018-03-02T16:58:24.075Z,-4.55
2018-03-02T17:00:50.202Z,-4.52
2018-03-02T17:03:15.938Z,-4.55
2018-03-02T17:05:41.708Z,-4.49
2018-03-02T17:08:07.456Z,-4.59
2018-03-02T17:10:33.245Z,-4.66
2018-03-02T17:12:58.986Z,-4.58
2018-03-02T17:15:24.741Z,-4.59
2018-03-02T17:17:50.475Z,-4.55
2018-03-02T17:20:16.234Z,-4.58
2018-03-02T17:22:41.965Z,-4.74
2018-03-02T17:25:07.718Z,-4.77
2018-03-02T17:27:33.482Z,-4.87
2018-03-02T17:29:59.223Z,-4.80
2018-03-02T17:32:25.033Z,-4.90
2018-03-02T17:34:51.271Z,-4.82
2018-03-02T17:37:17.394Z,-4.85
2018-03-02T17:39:43.118Z,-4.90
2018-03-02T17:42:08.858Z,-4.87
2018-03-02T17:44:34.582Z,-4.90
2018-03-02T17:47:00.319Z,-4.91
2018-03-02T17:49:26.041Z,-4.94
2018-03-02T17:51:51.789Z,-4.94
2018-03-02T17:54:17.530Z,-4.92
2018-03-02T17:56:43.278Z,-4.99
2018-03-02T17:59:09.056Z,-4.93
2018-03-02T18:01:34.793Z,-4.99
2018-03-02T18:04:00.548Z,-4.92
2018-03-02T18:06:26.293Z,-4.85
2018-03-02T18:08:52.038Z,-4.95
2018-03-02T18:11:17.802Z,-4.96
2018-03-02T18:13:43.546Z,-4.90
2018-03-02T18:16:09.290Z,-4.94
2018-03-02T18:18:35.029Z,-4.96
2018-03-02T18:21:00.755Z,-4.98
2018-03-02T18:23:26.474Z,-5.08
2018-03-02T18:25:52.210Z,-5.11
2018-03-02T18:28:17.978Z,-5.19
2018-03-02T18:30:43.730Z,-5.18
2018-03-02T18:33:09.490Z,-5.38
2018-03-02T18:35:35.249Z,-5.50
2018-03-02T18:38:00.986Z,-5.40
2018-03-02T18:40:26.739Z,-5.50
2018-03-02T18:42:52.509Z,-5.55
2018-03-02T18:45:18.245Z,-5.50
2018-03-02T18:47:44.015Z,-5.51
2018-03-02T18:50:09.756Z,-5.51
2018-03-02T18:52:35.543Z,-5.45
2018-03-02T18:55:01.310Z,-5.56
2018-03-02T18:57:27.052Z,-5.57
2018-03-02T18:59:52.796Z,-5.57
2018-03-02T19:02:18.558Z,-5.54
2018-03-02T19:04:44.291Z,-5.61
2018-03-02T19:07:10.026Z,-5.59
2018-03-02T19:09:35.798Z,-5.62
2018-03-02T19:12:01.556Z,-5.68
2018-03-02T19:14:27.302Z,-5.78
2018-03-02T19:16:53.050Z,-5.75
2018-03-02T19:19:18.789Z,-5.83
2018-03-02T19:21:44.530Z,-5.86
2018-03-02T19:24:10.269Z,-5.80
2018-03-02T19:26:35.998Z,-5.77
2018-03-02T19:29:01.755Z,-5.86
2018-03-02T19:31:27.490Z,-5.86
2018-03-02T19:33:53.245Z,-5.86
2018-03-02T19:36:18.977Z,-5.93
2018-03-02T19:38:44.722Z,-5.85
2018-03-02T19:41:10.469Z,-5.82
2018-03-02T19:43:36.269Z,-5.92
2018-03-02T19:46:02.006Z,-6.00
2018-03-02T19:48:27.770Z,-6.01
2018-03-02T19:50:53.526Z,-6.20
2018-03-02T19:53:19.265Z,-6.10
2018-03-02T19:55:45.013Z,-6.05
2018-03-02T19:58:10.737Z,-6.21
2018-03-02T20:00:36.487Z,-6.21
2018-03-02T20:03:02.222Z,-6.36
2018-03-02T20:05:27.970Z,-6.31
2018-03-02T20:07:53.703Z,-6.31
2018-03-02T20:10:19.450Z,-6.33
2018-03-02T20:12:45.191Z,-6.39
2018-03-02T20:15:11.052Z,-6.41
2018-03-02T20:17:36.834Z,-6.54
2018-03-02T20:20:02.574Z,-6.55
2018-03-02T20:22:28.297Z,-6.57
2018-03-02T20:24:54.042Z,-6.68
2018-03-02T20:27:19.781Z,-6.68
2018-03-02T20:29:45.531Z,-6.81
2018-03-02T20:32:11.270Z,-6.85
2018-03-02T20:34:37.006Z,-6.88
2018-03-02T20:37:09.773Z,-7.03
2018-03-02T20:39:35.514Z,-7.16
2018-03-02T20:42:01.258Z,-7.16
2018-03-02T20:44:26.999Z,-7.16
2018-03-02T20:46:52.838Z,-7.23
2018-03-02T20:49:18.580Z,-7.29
2018-03-02T20:51:44.323Z,-7.20
2018-03-02T20:54:10.061Z,-7.23
2018-03-02T20:56:35.833Z,-7.33
2018-03-02T20:59:01.582Z,-7.35
2018-03-02T21:01:27.387Z,-7.39
2018-03-02T21:03:53.108Z,-7.46
2018-03-02T21:06:18.880Z,-7.40
2018-03-02T21:08:44.670Z,-7.41
2018-03-02T21:11:10.429Z,-7.50
2018-03-02T21:13:36.158Z,-7.48
2018-03-02T21:16:01.891Z,-7.59
2018-03-02T21:18:27.647Z,-7.61
2018-03-02T21:20:53.374Z,-7.57
2018-03-02T21:23:19.133Z,-7.75
2018-03-02T21:25:44.870Z,-7.71
2018-03-02T21:28:10.624Z,-7.78
2018-03-02T21:30:36.374Z,-7.73
2018-03-02T21:33:02.129Z,-7.69
2018-03-02T21:35:27.872Z,-7.67
2018-03-02T21:37:53.631Z,-7.74
2018-03-02T21:40:19.364Z,-7.68
2018-03-02T21:42:45.134Z,-7.71
2018-03-02T21:45:10.857Z,-7.69
2018-03-02T21:47:36.601Z,-7.70
2018-03-02T21:50:02.339Z,-7.70
2018-03-02T21:52:28.083Z,-7.77
2018-03-02T21:54:53.830Z,-7.79
2018-03-02T21:57:19.597Z,-7.73
2018-03-02T21:59:45.353Z,-7.76
2018-03-02T22:02:11.106Z,-7.78
2018-03-02T22:04:36.848Z,-7.78
2018-03-02T22:07:02.606Z,-7.73
2018-03-02T22:09:28.359Z,-7.78
2018-03-02T22:11:54.111Z,-7.77
2018-03-02T22:14:19.847Z,-7.80
2018-03-02T22:16:45.589Z,-7.80
2018-03-02T22:19:11.338Z,-7.80
2018-03-02T22:21:37.079Z,-7.90
2018-03-02T22:24:02.871Z,-7.86
2018-03-02T22:26:28.676Z,-7.80
2018-03-02T22:28:54.426Z,-7.81
2018-03-02T22:31:20.169Z,-7.74
2018-03-02T22:33:45.922Z,-7.82
2018-03-02T22:36:11.651Z,-7.76
2018-03-02T22:38:37.396Z,-7.85
2018-03-02T22:41:03.131Z,-7.87
2018-03-02T22:43:28.889Z,-7.93
2018-03-02T22:45:54.623Z,-7.77
2018-03-02T22:48:20.386Z,-7.85
2018-03-02T22:50:46.119Z,-7.85
2018-03-02T22:53:11.888Z,-7.83
2018-03-02T22:55:37.639Z,-7.85
2018-03-02T22:58:03.386Z,-7.85
2018-03-02T23:00:29.182Z,-7.76
2018-03-02T23:02:54.890Z,-7.84
2018-03-02T23:05:20.632Z,-7.86
2018-03-02T23:07:46.371Z,-7.81
2018-03-02T23:10:12.121Z,-7.77
2018-03-02T23:12:37.865Z,-7.87
2018-03-02T23:15:03.646Z,-7.86
2018-03-02T23:17:29.411Z,-7.92
2018-03-02T23:19:55.182Z,-7.89
2018-03-02T23:22:20.915Z,-7.84
2018-03-02T23:24:46.670Z,-7.78
2018-03-02T23:27:12.427Z,-7.82
2018-03-02T23:29:38.175Z,-7.81
2018-03-02T23:32:03.926Z,-7.89
2018-03-02T23:34:29.687Z,-7.91
2018-03-02T23:36:55.419Z,-7.92
2018-03-02T23:39:21.153Z,-7.85
2018-03-02T23:41:46.900Z,-7.86
2018-03-02T23:44:12.655Z,-7.94
2018-03-02T23:46:38.415Z,-7.90
2018-03-02T23:49:04.158Z,-7.87
2018-03-02T23:51:29.898Z,-7.90
2018-03-02T23:53:55.631Z,-7.87
2018-03-02T23:56:21.377Z,-7.85
2018-03-02T23:58:47.130Z,-7.84
